createdAt,value
2019-01-05T00:02:51.650Z,27.23
2019-01-05T00:08:28.838Z,22.83
2019-01-05T00:13:54.738Z,26.90
2019-01-05T00:19:18.924Z,27.43
2019-01-05T00:24:57.333Z,28.90
2019-01-05T00:30:24.323Z,23.67
2019-01-05T00:36:01.536Z,24.33
2019-01-05T00:41:25.002Z,24.40
2019-01-05T00:46:48.395Z,22.70
2019-01-05T00:52:15.659Z,26.40
2019-01-05T00:57:46.618Z,23.83
2019-01-05T01:03:09.515Z,26.03
2019-01-05T01:08:49.052Z,25.30
2019-01-05T01:14:11.956Z,25.63
2019-01-05T01:19:45.122Z,26.20
2019-01-05T01:25:08.891Z,24.17
2019-01-05T01:30:31.504Z,20.23
2019-01-05T01:36:00.203Z,18.60
2019-01-05T01:41:43.260Z,21.00
2019-01-05T01:47:17.304Z,22.70
2019-01-05T01:53:05.074Z,22.80
2019-01-05T01:58:29.360Z,22.93
2019-01-05T02:03:53.920Z,24.37
2019-01-05T02:09:19.480Z,20.97
2019-01-05T02:14:48.622Z,19.13
2019-01-05T02:20:39.564Z,20.67
2019-01-05T02:26:39.436Z,23.70
2019-01-05T02:32:22.578Z,24.80
2019-01-05T02:38:32.756Z,20.00
2019-01-05T02:45:01.177Z,19.70
2019-01-05T02:51:45.186Z,20.10
2019-01-05T02:57:52.728Z,18.80
2019-01-05T03:03:48.196Z,19.13
2019-01-05T03:09:43.121Z,18.87
2019-01-05T03:15:19.387Z,15.67
2019-01-05T03:21:20.640Z,16.63
2019-01-05T03:27:20.178Z,24.60
2019-01-05T03:33:11.689Z,29.37
2019-01-05T03:39:16.183Z,29.30
2019-01-05T03:45:19.395Z,32.70
2019-01-05T03:51:29.618Z,27.83
2019-01-05T03:57:25.932Z,18.20
2019-01-05T04:03:34.643Z,23.17
2019-01-05T04:09:26.290Z,21.70
2019-01-05T04:15:28.825Z,20.30
2019-01-05T04:21:28.754Z,22.03
2019-01-05T04:27:33.357Z,20.23
2019-01-05T04:33:28.942Z,21.07
2019-01-05T04:39:28.904Z,23.67
2019-01-05T04:45:26.203Z,26.93
2019-01-05T04:51:49.772Z,23.67
2019-01-05T04:58:02.312Z,25.17
2019-01-05T05:04:17.400Z,24.00
2019-01-05T05:09:58.498Z,25.90
2019-01-05T05:16:08.300Z,26.83
2019-01-05T05:22:30.404Z,23.70
2019-01-05T05:28:37.668Z,26.73
2019-01-05T05:34:27.953Z,23.50
2019-01-05T05:40:41.050Z,28.13
2019-01-05T05:47:00.941Z,28.83
2019-01-05T05:53:06.615Z,27.57
2019-01-05T05:59:17.471Z,30.23
2019-01-05T06:05:26.004Z,22.00
2019-01-05T06:11:27.669Z,21.70
2019-01-05T06:17:21.147Z,22.07
2019-01-05T06:23:30.041Z,21.40
2019-01-05T06:29:46.759Z,27.27
2019-01-05T06:36:05.251Z,23.60
2019-01-05T06:42:13.644Z,26.23
2019-01-05T06:48:25.183Z,21.07
2019-01-05T06:54:30.829Z,28.77
2019-01-05T07:00:28.740Z,26.93
2019-01-05T07:06:26.443Z,23.93
2019-01-05T07:12:25.317Z,28.63
2019-01-05T07:18:46.862Z,33.40
2019-01-05T07:24:45.411Z,28.03
2019-01-05T07:30:44.987Z,27.80
2019-01-05T07:36:35.284Z,24.27
2019-01-05T07:42:46.421Z,22.77
2019-01-05T07:48:55.518Z,24.47
2019-01-05T07:54:54.649Z,21.63
2019-01-05T08:00:53.233Z,23.80
2019-01-05T08:07:00.307Z,22.47
2019-01-05T08:12:59.513Z,22.63
2019-01-05T08:19:13.161Z,21.53
2019-01-05T08:25:23.269Z,22.57
2019-01-05T08:31:23.927Z,20.33
2019-01-05T08:37:30.933Z,25.00
2019-01-05T08:43:37.969Z,23.37
2019-01-05T08:49:26.155Z,24.07
2019-01-05T08:55:28.930Z,23.70
2019-01-05T09:01:44.644Z,22.17
2019-01-05T09:07:43.512Z,22.83
2019-01-05T09:13:53.119Z,26.07
2019-01-05T09:20:06.766Z,22.03
2019-01-05T09:26:10.059Z,26.07
2019-01-05T09:32:15.281Z,22.63
2019-01-05T09:38:09.257Z,19.07
2019-01-05T09:44:23.331Z,15.87
2019-01-05T09:50:38.553Z,17.43
2019-01-05T09:56:42.154Z,16.87
2019-01-05T10:02:42.261Z,17.13
2019-01-05T10:08:35.482Z,17.20
2019-01-05T10:14:38.427Z,16.10
2019-01-05T10:20:26.311Z,15.27
2019-01-05T10:26:44.063Z,15.37
2019-01-05T10:32:41.771Z,15.87
2019-01-05T10:38:42.835Z,18.07
2019-01-05T10:44:25.922Z,17.50
2019-01-05T10:50:24.507Z,19.27
2019-01-05T10:56:31.655Z,21.10
2019-01-05T11:02:44.836Z,20.20
2019-01-05T11:09:00.189Z,17.07
2019-01-05T11:15:17.147Z,19.50
2019-01-05T11:21:23.052Z,18.93
2019-01-05T11:27:42.938Z,20.27
2019-01-05T11:33:53.711Z,20.10
2019-01-05T11:40:09.411Z,19.63
2019-01-05T11:46:08.031Z,19.23
2019-01-05T11:52:15.398Z,20.30
2019-01-05T11:57:59.595Z,19.17
2019-01-05T12:04:00.601Z,19.47
2019-01-05T12:10:06.337Z,19.37
2019-01-05T12:15:54.243Z,19.73
2019-01-05T12:22:10.540Z,19.40
2019-01-05T12:28:20.304Z,20.23
2019-01-05T12:34:20.557Z,18.27
2019-01-05T12:40:26.493Z,19.67
2019-01-05T12:46:28.799Z,18.60
2019-01-05T12:52:42.584Z,19.80
2019-01-05T12:58:46.281Z,21.87
2019-01-05T13:05:00.977Z,17.20
2019-01-05T13:11:25.931Z,19.20
2019-01-05T13:17:30.102Z,19.00
2019-01-05T13:24:00.109Z,17.93
2019-01-05T13:30:14.470Z,17.00
2019-01-05T13:36:18.251Z,19.87
2019-01-05T13:42:22.658Z,21.80
2019-01-05T13:48:22.187Z,22.33
2019-01-05T13:54:05.755Z,23.83
2019-01-05T13:59:31.436Z,22.90
2019-01-05T14:04:57.214Z,20.13
2019-01-05T14:10:20.193Z,20.77
2019-01-05T14:15:38.935Z,20.03
2019-01-05T14:21:16.690Z,21.10
2019-01-05T14:26:40.869Z,22.93
2019-01-05T14:32:06.607Z,21.37
2019-01-05T14:37:31.055Z,21.87
2019-01-05T14:42:54.461Z,23.23
2019-01-05T14:48:17.697Z,20.73
2019-01-05T14:54:00.004Z,19.57
2019-01-05T14:59:25.011Z,24.40
2019-01-05T15:04:48.540Z,23.07
2019-01-05T15:10:18.866Z,23.27
2019-01-05T15:15:49.089Z,21.03
2019-01-05T15:21:12.101Z,20.27
2019-01-05T15:26:39.347Z,21.60
2019-01-05T15:32:02.995Z,21.27
2019-01-05T15:37:30.009Z,23.30
2019-01-05T15:42:57.825Z,27.33
2019-01-05T15:48:31.450Z,26.87
2019-01-05T15:54:07.779Z,22.40
2019-01-05T15:59:30.482Z,28.53
2019-01-05T16:04:53.623Z,25.33
2019-01-05T16:10:18.805Z,25.43
2019-01-05T16:15:58.251Z,29.27
2019-01-05T16:21:34.111Z,27.67
2019-01-05T16:27:10.396Z,24.60
2019-01-05T16:32:33.475Z,26.03
2019-01-05T16:37:53.913Z,26.80
2019-01-05T16:43:28.274Z,22.67
2019-01-05T16:49:04.897Z,30.20
2019-01-05T16:54:34.785Z,26.53
2019-01-05T16:59:58.452Z,26.37
2019-01-05T17:05:31.946Z,25.30
2019-01-05T17:10:56.179Z,25.03
2019-01-05T17:16:26.400Z,25.30
2019-01-05T17:21:45.711Z,26.03
2019-01-05T17:27:08.649Z,23.33
2019-01-05T17:32:38.620Z,27.33
2019-01-05T17:38:05.919Z,26.50
2019-01-05T17:43:45.326Z,26.63
2019-01-05T17:49:09.598Z,23.03
2019-01-05T17:54:36.109Z,28.43
2019-01-05T17:59:58.811Z,27.67
2019-01-05T18:05:23.233Z,24.90
2019-01-05T18:10:46.308Z,27.23
2019-01-05T18:16:12.199Z,28.87
2019-01-05T18:21:42.304Z,26.67
2019-01-05T18:26:59.248Z,28.93
2019-01-05T18:32:32.480Z,30.43
2019-01-05T18:37:55.771Z,28.23
2019-01-05T18:43:18.845Z,30.17
2019-01-05T18:48:52.033Z,31.97
2019-01-05T18:54:30.476Z,29.30
2019-01-05T19:00:12.878Z,26.90
2019-01-05T19:05:46.080Z,30.10
2019-01-05T19:11:08.868Z,30.43
2019-01-05T19:16:45.094Z,30.33
2019-01-05T19:22:08.115Z,29.70
2019-01-05T19:27:37.448Z,31.23
2019-01-05T19:33:00.377Z,32.00
2019-01-05T19:38:24.475Z,28.90
2019-01-05T19:44:02.222Z,29.90
2019-01-05T19:49:29.317Z,31.17
2019-01-05T19:55:02.863Z,33.17
2019-01-05T20:00:26.545Z,32.43
2019-01-05T20:05:57.214Z,32.97
2019-01-05T20:11:23.611Z,36.47
2019-01-05T20:16:50.955Z,33.50
2019-01-05T20:22:14.040Z,36.60
2019-01-05T20:27:37.319Z,34.73
2019-01-05T20:33:07.027Z,31.37
2019-01-05T20:38:34.361Z,32.37
2019-01-05T20:43:57.422Z,32.40
2019-01-05T20:49:30.649Z,31.60
2019-01-05T20:54:57.798Z,29.90
2019-01-05T21:00:28.675Z,33.93
2019-01-05T21:05:54.302Z,32.47
2019-01-05T21:11:18.535Z,29.17
2019-01-05T21:17:01.522Z,28.37
2019-01-05T21:22:36.414Z,28.83
2019-01-05T21:27:59.104Z,28.90
2019-01-05T21:33:25.912Z,28.53
2019-01-05T21:38:46.617Z,26.27
2019-01-05T21:44:23.030Z,27.43
2019-01-05T21:49:47.106Z,26.13
2019-01-05T21:55:10.190Z,23.60
2019-01-05T22:00:49.804Z,29.90
2019-01-05T22:06:16.797Z,27.03
2019-01-05T22:11:38.491Z,25.07
2019-01-05T22:17:10.954Z,27.20
2019-01-05T22:22:34.725Z,29.70
2019-01-05T22:28:01.840Z,27.83
2019-01-05T22:33:32.797Z,26.53
2019-01-05T22:38:59.271Z,22.93
2019-01-05T22:44:22.987Z,26.10
2019-01-05T22:49:47.024Z,22.00
2019-01-05T22:55:11.127Z,27.90
2019-01-05T23:00:37.958Z,28.57
2019-01-05T23:06:00.976Z,30.23
2019-01-05T23:11:24.065Z,28.87
2019-01-05T23:16:47.256Z,32.77
2019-01-05T23:22:16.279Z,35.77
2019-01-05T23:27:47.795Z,33.67
2019-01-05T23:33:11.827Z,34.57
2019-01-05T23:38:50.116Z,25.97
2019-01-05T23:44:09.740Z,27.03
2019-01-05T23:49:39.811Z,26.83
2019-01-05T23:54:56.902Z,28.40
